Bavaria, Kansas
Current Conditions -  °F | °C
As of 2:53 PM on Thursday 27 Nov 2014 (Local Time) from KSLN Reporting Station
Clear Clear  
Wind Chill:   Ceiling: Unl
Heat Index:   Visibility: 10mi
Dew Point: -9°   Wind: 17mph
Humidity: 29%   Direction: 190°S
Pressure: 30.29"   Gusts: 25mph
Location:  38.8424°N, 97.6193°W
Report Text: KSLN 272053Z 19015G22KT 10SM CLR 08/M09 A3029 RMK AO2 SLP268 T00781094 56050
Loading
Personal Weather Stations






























Interactive Weather Map New forecast layout! Learn more

10-Day Weather Forecast

Advertisements
Track Severe Weather on mobile